• Join FlightAware (Why Join?)
  • Login
  • US Flag 
08:51PM EDT


 

Airport Tracker/Info


-or-


 

Live Flight TrackerFlight Track Log ✈ CES5633 ✈ 07-Jul-2013 ✈ ZSSS / SHA - ZWWW / URC

Flight Track Log - Related Links

Times and Time Zones

All times are in EDT time to prevent confusion due to time zone crossing. See the CES5633 flight status page for this flight to view local times or setup timezone preferences in your user account.

Time Position Orientation Groundspeed Altitude Reporting Facility
EDT Latitude Longitude Course Direction KTS MPH feet Rate Location/Type
08:06PM 31.0800 121.2170 325° Northwest 291 335 7,200  Level FlightAware
08:07PM 31.1080 121.1970 329° Northwest 289 333 8,300 2,400 Climbing FlightAware
08:07PM 31.1360 121.1770 329° Northwest 290 334 9,200 1,620 Climbing FlightAware
08:08PM 31.1850 121.1400 327° Northwest 303 349 10,100 600 Climbing FlightAware
08:09PM 31.2330 121.1180 339° North 307 353 10,000  Descending FlightAware
08:09PM 31.3150 121.1170 359° North 310 357 10,100 480 Climbing FlightAware
08:10PM 31.3770 121.1170 360° North 353 406 10,800 1,260 Climbing FlightAware
08:11PM 31.4930 121.0940 350° North 374 430 12,500 1,740 Climbing FlightAware
08:12PM 31.5600 121.0580 335° Northwest 387 445 14,000 1,980 Climbing FlightAware
08:13PM 31.6210 121.0260 336° Northwest 392 451 15,200 960 Climbing FlightAware
08:13PM 31.6930 120.9870 335° Northwest 392 451 15,500 180 Climbing FlightAware
08:14PM 31.7450 120.9580 335° Northwest 392 451 15,500  Level FlightAware
08:15PM 31.8130 120.9210 335° Northwest 392 451 15,500  Level FlightAware
08:15PM 31.8650 120.8920 335° Northwest 392 451 15,500  Level FlightAware
08:16PM 31.9150 120.8650 335° Northwest 392 451 15,500  Level FlightAware
08:17PM 31.9650 120.8370 335° Northwest 392 451 15,500 1,560 Level FlightAware
08:19PM 32.0661 120.6616 304° West  Level Estimated
08:20PM 32.1211 120.5658 304° West  Level Estimated
08:21PM 32.1761 120.4698 304° West  Level Estimated
08:22PM 32.2310 120.3737 304° West  Level Estimated
08:23PM 32.2858 120.2775 304° West  Level Estimated
08:24PM 32.3406 120.1812 304° West  Level Estimated
08:24PM 32.2360 119.9210 304° West 437 503 27,600  Level FlightAware
08:25PM 32.2430 119.8210 275° West 442 509 27,600  Level FlightAware
08:25PM 32.2370 119.7280 266° West 444 511 27,600  Level FlightAware
08:26PM 32.2220 119.6430 258° West 445 512 27,600  Level FlightAware
08:27PM 32.2050 119.5370 259° West 445 512 27,600 60 Level FlightAware
08:27PM 32.1860 119.4450 256° West 445 512 27,700 60 Climbing FlightAware
08:28PM 32.1630 119.3160 258° West 442 509 27,700 -60 Level FlightAware
08:29PM 32.1430 119.2090 258° West 437 503 27,600 -120 Descending FlightAware
08:30PM 32.1230 119.1010 258° West 432 497 27,600  Level FlightAware
08:31PM 32.0980 118.9660 258° West 431 496 27,600  Level FlightAware
08:31PM 32.0860 118.8960 259° West 431 496 27,600  Level FlightAware
08:32PM 32.0680 118.8000 258° West 431 496 27,600  Level FlightAware
08:33PM 32.0520 118.7060 259° West 431 496 27,600  Level FlightAware
08:33PM 32.0380 118.6340 257° West 431 496 27,600  Level FlightAware
08:36PM 32.1541 118.4378 305° West  Level Estimated
08:37PM 32.2101 118.3427 305° West  Level Estimated
08:38PM 32.2661 118.2475 305° West  Level Estimated
08:39PM 32.3220 118.1521 305° West  Level Estimated
08:40PM 32.3778 118.0566 305° West  Level Estimated
08:41PM 32.4336 117.9611 305° West  Level Estimated
08:42PM 32.4893 117.8654 305° West  Level Estimated
08:43PM 32.5449 117.7695 305° West  Level Estimated
08:44PM 32.6005 117.6736 305° West  Level Estimated
08:45PM 32.6559 117.5775 304° West  Level Estimated
08:46PM 32.7113 117.4814 304° West  Level Estimated
08:47PM 32.7667 117.3851 304° West  Level Estimated
08:48PM 32.8219 117.2886 304° West  Level Estimated
08:49PM 32.8771 117.1921 304° West  Level Estimated
08:50PM 32.9322 117.0954 304° West  Level Estimated
08:51PM 32.9872 116.9987 304° West  Level Estimated
08:52PM 33.0422 116.9018 304° West  Level Estimated
08:53PM 33.0971 116.8047 304° West  Level Estimated
08:54PM 33.1519 116.7076 304° West  Level Estimated
08:55PM 33.2066 116.6103 304° West  Level Estimated
08:56PM 33.2612 116.5130 304° West  Level Estimated
08:57PM 33.3158 116.4155 304° West  Level Estimated
08:58PM 33.3703 116.3178 304° West  Level Estimated
08:59PM 33.4248 116.2201 304° West  Level Estimated
09:00PM 33.4791 116.1222 304° West  Level Estimated
09:01PM 33.5334 116.0242 304° West  Level Estimated
09:02PM 33.5876 115.9261 304° West  Level Estimated
09:03PM 33.6417 115.8278 304° West  Level Estimated
09:04PM 33.6957 115.7295 303° West  Level Estimated
09:05PM 33.7497 115.6310 303° West  Level Estimated
09:06PM 33.8036 115.5324 303° West  Level Estimated
09:07PM 33.8574 115.4336 303° West  Level Estimated
09:08PM 33.9111 115.3348 303° West  Level Estimated
09:09PM 33.9647 115.2358 303° West  Level Estimated
09:10PM 34.0183 115.1367 303° West  Level Estimated
09:11PM 34.0718 115.0374 303° West  Level Estimated
09:12PM 34.1252 114.9381 303° West  Level Estimated
09:13PM 34.1786 114.8386 303° West  Level Estimated
09:14PM 34.2318 114.7390 303° West  Level Estimated
09:15PM 34.2850 114.6392 303° West  Level Estimated
09:16PM 34.3381 114.5394 303° West  Level Estimated
09:17PM 34.3911 114.4394 303° West  Level Estimated
09:18PM 34.4440 114.3393 303° West  Level Estimated
09:19PM 34.4968 114.2390 303° West  Level Estimated
09:20PM 34.5496 114.1386 303° West  Level Estimated
09:21PM 34.6023 114.0381 303° West  Level Estimated
09:22PM 34.6549 113.9375 302° West  Level Estimated
09:23PM 34.7074 113.8368 302° West  Level Estimated
09:24PM 34.7598 113.7359 302° West  Level Estimated
09:25PM 34.8121 113.6349 302° West  Level Estimated
09:26PM 34.8644 113.5337 302° West  Level Estimated
09:27PM 34.9197 113.4264 302° West  Level Estimated
09:28PM 34.9749 113.3188 302° West  Level Estimated
09:29PM 35.0301 113.2112 302° West  Level Estimated
09:30PM 35.0851 113.1033 302° West  Level Estimated
09:31PM 35.1401 112.9954 302° West  Level Estimated
09:32PM 35.1949 112.8873 302° West  Level Estimated
09:33PM 35.2497 112.7790 302° West  Level Estimated
09:34PM 35.3043 112.6706 302° West  Level Estimated
09:35PM 35.3589 112.5621 302° West  Level Estimated
09:36PM 35.4133 112.4534 302° West  Level Estimated
09:37PM 35.4677 112.3445 302° West  Level Estimated
09:38PM 35.5220 112.2355 301° West  Level Estimated
09:39PM 35.5761 112.1264 301° West  Level Estimated
09:40PM 35.6302 112.0171 301° West  Level Estimated
09:41PM 35.6842 111.9077 301° West  Level Estimated
09:42PM 35.7381 111.7981 301° West  Level Estimated
09:43PM 35.7918 111.6884 301° West  Level Estimated
09:44PM 35.8455 111.5785 301° West  Level Estimated
09:45PM 35.8991 111.4685 301° West  Level Estimated
09:46PM 35.9525 111.3583 301° West  Level Estimated
09:47PM 36.0059 111.2480 301° West  Level Estimated
09:48PM 36.0592 111.1375 301° West  Level Estimated
09:49PM 36.1124 111.0269 301° West  Level Estimated
09:50PM 36.1654 110.9161 301° West  Level Estimated
09:51PM 36.2184 110.8052 301° West  Level Estimated
09:52PM 36.2712 110.6941 301° West  Level Estimated
09:53PM 36.3240 110.5829 301° West  Level Estimated
09:54PM 36.3767 110.4715 300° West  Level Estimated
09:55PM 36.4292 110.3600 300° West  Level Estimated
09:56PM 36.4817 110.2483 300° West  Level Estimated
09:57PM 36.5340 110.1365 300° West  Level Estimated
09:58PM 36.5862 110.0245 300° West  Level Estimated
09:59PM 36.6384 109.9124 300° West  Level Estimated
10:00PM 36.6904 109.8001 300° West  Level Estimated
10:01PM 36.7423 109.6877 300° West  Level Estimated
10:02PM 36.7941 109.5751 300° West  Level Estimated
10:03PM 36.8459 109.4624 300° West  Level Estimated
10:04PM 36.8975 109.3495 300° West  Level Estimated
10:05PM 36.9490 109.2364 300° West  Level Estimated
10:06PM 37.0004 109.1233 300° West  Level Estimated
10:07PM 37.0516 109.0099 300° West  Level Estimated
10:08PM 37.1028 108.8964 300° West  Level Estimated
10:09PM 37.1539 108.7828 299° West  Level Estimated
10:10PM 37.2048 108.6689 299° West  Level Estimated
10:11PM 37.2557 108.5550 299° West  Level Estimated
10:12PM 37.3064 108.4409 299° West  Level Estimated
10:13PM 37.3571 108.3266 299° West  Level Estimated
10:14PM 37.4076 108.2122 299° West  Level Estimated
10:15PM 37.4580 108.0976 299° West  Level Estimated
10:16PM 37.5083 107.9829 299° West  Level Estimated
10:17PM 37.5585 107.8680 299° West  Level Estimated
10:18PM 37.6086 107.7529 299° West  Level Estimated
10:19PM 37.6585 107.6377 299° West  Level Estimated
10:20PM 37.7084 107.5224 299° West  Level Estimated
10:21PM 37.7581 107.4069 299° West  Level Estimated
10:22PM 37.8077 107.2912 299° West  Level Estimated
10:23PM 37.8573 107.1754 298° West  Level Estimated
10:24PM 37.9067 107.0594 298° West  Level Estimated
10:25PM 37.9559 106.9433 298° West  Level Estimated
10:26PM 38.0051 106.8270 298° West  Level Estimated
10:27PM 38.0542 106.7106 298° West  Level Estimated
10:28PM 38.1031 106.5940 298° West  Level Estimated
10:29PM 38.1519 106.4772 298° West  Level Estimated
10:30PM 38.2006 106.3603 298° West  Level Estimated
10:31PM 38.2492 106.2433 298° West  Level Estimated
10:32PM 38.2977 106.1261 298° West  Level Estimated
10:33PM 38.3461 106.0087 298° West  Level Estimated
10:34PM 38.3943 105.8911 298° West  Level Estimated
10:35PM 38.4425 105.7735 298° West  Level Estimated
10:36PM 38.4905 105.6556 298° West  Level Estimated
10:37PM 38.5384 105.5376 297° West  Level Estimated
10:38PM 38.5861 105.4194 297° West  Level Estimated
10:39PM 38.6338 105.3011 297° West  Level Estimated
10:40PM 38.6813 105.1826 297° West  Level Estimated
10:41PM 38.7287 105.0640 297° West  Level Estimated
10:42PM 38.7760 104.9452 297° West  Level Estimated
10:43PM 38.8232 104.8263 297° West  Level Estimated
10:44PM 38.8702 104.7072 297° West  Level Estimated
10:45PM 38.9172 104.5879 297° West  Level Estimated
10:46PM 38.9640 104.4685 297° West  Level Estimated
10:47PM 39.0107 104.3489 297° West  Level Estimated
10:48PM 39.0572 104.2292 297° West  Level Estimated
10:49PM 39.1037 104.1093 297° West  Level Estimated
10:50PM 39.1500 103.9892 296° West  Level Estimated
10:51PM 39.1962 103.8690 296° West  Level Estimated
10:52PM 39.2423 103.7486 296° West  Level Estimated
10:53PM 39.2882 103.6281 296° West  Level Estimated
10:54PM 39.3340 103.5074 296° West  Level Estimated
10:55PM 39.3797 103.3866 296° West  Level Estimated
10:56PM 39.4253 103.2656 296° West  Level Estimated
10:57PM 39.4708 103.1444 296° West  Level Estimated
10:58PM 39.5161 103.0231 296° West  Level Estimated
10:59PM 39.5613 102.9016 296° West  Level Estimated
11:00PM 39.6064 102.7800 296° West  Level Estimated
11:01PM 39.6513 102.6582 296° West  Level Estimated
11:02PM 39.6961 102.5363 296° West  Level Estimated
11:03PM 39.7408 102.4142 295° West  Level Estimated
11:04PM 39.7854 102.2919 295° West  Level Estimated
11:05PM 39.8298 102.1695 295° West  Level Estimated
11:06PM 39.8741 102.0469 295° West  Level Estimated
11:07PM 39.9183 101.9242 295° West  Level Estimated
11:08PM 39.9623 101.8013 295° West  Level Estimated
11:09PM 40.0062 101.6782 295° West  Level Estimated
11:10PM 40.0500 101.5550 295° West  Level Estimated
11:11PM 40.0937 101.4316 295° West  Level Estimated
11:12PM 40.1372 101.3081 295° West  Level Estimated
11:13PM 40.1806 101.1844 295° West  Level Estimated
11:14PM 40.2239 101.0606 295° West  Level Estimated
11:15PM 40.2670 100.9366 295° West  Level Estimated
11:16PM 40.3100 100.8124 294° West  Level Estimated
11:17PM 40.3529 100.6881 294° West  Level Estimated
11:18PM 40.3956 100.5636 294° West  Level Estimated
11:19PM 40.4382 100.4390 294° West  Level Estimated
11:20PM 40.4806 100.3142 294° West  Level Estimated
11:21PM 40.5230 100.1892 294° West  Level Estimated
11:22PM 40.5652 100.0641 294° West  Level Estimated
11:23PM 40.6072 99.9388 294° West  Level Estimated
11:24PM 40.6491 99.8134 294° West  Level Estimated
11:25PM 40.6909 99.6878 294° West  Level Estimated
11:26PM 40.7326 99.5621 294° West  Level Estimated
11:27PM 40.7741 99.4362 294° West  Level Estimated
11:28PM 40.8155 99.3102 293° West  Level Estimated
11:29PM 40.8567 99.1839 293° West  Level Estimated
11:30PM 40.8978 99.0576 293° West  Level Estimated
11:31PM 40.9388 98.9311 293° West  Level Estimated
11:32PM 40.9796 98.8044 293° West  Level Estimated
11:33PM 41.0203 98.6775 293° West  Level Estimated
11:34PM 41.0608 98.5505 293° West  Level Estimated
11:35PM 41.1012 98.4234 293° West  Level Estimated
11:36PM 41.1415 98.2961 293° West  Level Estimated
11:37PM 41.1816 98.1686 293° West  Level Estimated
11:38PM 41.2216 98.0410 293° West  Level Estimated
11:39PM 41.2615 97.9132 293° West  Level Estimated
11:40PM 41.3012 97.7853 292° West  Level Estimated
11:41PM 41.3407 97.6572 292° West  Level Estimated
11:42PM 41.3801 97.5290 292° West  Level Estimated
11:43PM 41.4194 97.4006 292° West  Level Estimated
11:44PM 41.4586 97.2720 292° West  Level Estimated
11:45PM 41.4976 97.1433 292° West  Level Estimated
11:46PM 41.5364 97.0144 292° West  Level Estimated
11:47PM 41.5751 96.8854 292° West  Level Estimated
11:48PM 41.6137 96.7562 292° West  Level Estimated
11:49PM 41.6521 96.6269 292° West  Level Estimated
11:50PM 41.6903 96.4974 292° West  Level Estimated
11:51PM 41.7285 96.3678 292° West  Level Estimated
11:52PM 41.7664 96.2380 291° West  Level Estimated
11:53PM 41.8043 96.1081 291° West  Level Estimated
11:54PM 41.8419 95.9780 291° West  Level Estimated
11:55PM 41.8795 95.8477 291° West  Level Estimated
11:56PM 41.9169 95.7173 291° West  Level Estimated
11:57PM 41.9541 95.5868 291° West  Level Estimated
11:58PM 41.9912 95.4561 291° West  Level Estimated
11:59PM 42.0282 95.3252 291° West  Level Estimated
12:00AM 42.0650 95.1942 291° West  Level Estimated
12:01AM 42.1016 95.0631 291° West  Level Estimated
12:02AM 42.1381 94.9317 291° West  Level Estimated
12:03AM 42.1745 94.8003 290° West  Level Estimated
12:04AM 42.2107 94.6687 290° West  Level Estimated
12:05AM 42.2467 94.5369 290° West  Level Estimated
12:06AM 42.2826 94.4050 290° West  Level Estimated
12:07AM 42.3184 94.2729 290° West  Level Estimated
12:08AM 42.3539 94.1407 290° West  Level Estimated
12:09AM 42.3894 94.0084 290° West  Level Estimated
12:10AM 42.4247 93.8759 290° West  Level Estimated
12:11AM 42.4598 93.7432 290° West  Level Estimated
12:12AM 42.4948 93.6104 290° West  Level Estimated
12:13AM 42.5296 93.4774 290° West  Level Estimated
12:14AM 42.5643 93.3443 290° West  Level Estimated
12:15AM 42.5988 93.2111 289° West  Level Estimated
12:16AM 42.6332 93.0777 289° West  Level Estimated
12:17AM 42.6674 92.9441 289° West  Level Estimated
12:18AM 42.7015 92.8104 289° West  Level Estimated
12:19AM 42.7354 92.6766 289° West  Level Estimated
12:20AM 42.7691 92.5426 289° West  Level Estimated
12:21AM 42.8027 92.4084 289° West  Level Estimated
12:22AM 42.8361 92.2742 289° West  Level Estimated
12:23AM 42.8694 92.1397 289° West  Level Estimated
12:24AM 42.9025 92.0052 289° West  Level Estimated
12:25AM 42.9355 91.8705 289° West  Level Estimated
12:26AM 42.9683 91.7356 288° West  Level Estimated
12:27AM 43.0009 91.6006 288° West  Level Estimated
12:28AM 43.0334 91.4655 288° West  Level Estimated
12:29AM 43.0657 91.3302 288° West  Level Estimated
12:30AM 43.0979 91.1947 288° West  Level Estimated
12:31AM 43.1299 91.0592 288° West  Level Estimated
12:32AM 43.1617 90.9235 288° West  Level Estimated
12:33AM 43.1934 90.7876 288° West  Level Estimated
12:34AM 43.2249 90.6516 288° West  Level Estimated
12:35AM 43.2563 90.5155 288° West  Level Estimated
12:36AM 43.2875 90.3792 288° West  Level Estimated
12:37AM 43.3185 90.2428 287° West  Level Estimated
12:38AM 43.3494 90.1062 287° West  Level Estimated
12:39AM 43.3801 89.9695 287° West  Level Estimated
12:40AM 43.4107 89.8327 287° West  Level Estimated
12:41AM 43.4411 89.6957 287° West  Level Estimated
12:42AM 43.4713 89.5586 287° West  Level Estimated
12:43AM 43.5014 89.4214 287° West  Level Estimated
12:44AM 43.5312 89.2840 287° West  Level Estimated
12:45AM 43.5610 89.1465 287° West  Level Estimated
12:46AM 43.5905 89.0088 287° West  Level Estimated
12:47AM 43.6199 88.8710 286° West  Level Estimated
12:48AM 43.6492 88.7331 286° West  Level Estimated
12:49AM 43.6783 88.5951 286° West  Level Estimated
12:50AM 43.7072 88.4569 286° West  Level Estimated
12:51AM 43.7359 88.3186 286° West  Level Estimated
12:52AM 43.7645 88.1801 286° West  Level Estimated
12:53AM 43.7929 88.0415 286° West  Level Estimated
12:54AM 43.8211 87.9028 286° West  Level Estimated
12:55AM 43.8492 87.7639 286° West  Level Estimated
12:56AM 43.8768 87.6264 286° West  Level Estimated
12:57AM 43.9042 87.4888 286° West  Level Estimated
12:58AM 43.9071 87.4742 285° West  Level Estimated
12:59AM 43.9071 87.4742 144° Southeast  Level Estimated
01:00AM 43.9071 87.4742 144° Southeast  Level Estimated
01:01AM 43.9071 87.4742 144° Southeast  Level Estimated
01:02AM 43.9071 87.4742 144° Southeast  Level Estimated
01:03AM 43.9071 87.4742 144° Southeast  Level Estimated
01:04AM 43.9071 87.4742 144° Southeast  Level Estimated